createdAt,value
2023-05-25T00:01:53.489Z,12.67
2023-05-25T00:04:38.560Z,12.67
2023-05-25T00:07:23.556Z,12.62
2023-05-25T00:10:08.153Z,12.66
2023-05-25T00:12:53.219Z,12.65
2023-05-25T00:15:38.024Z,12.65
2023-05-25T00:18:23.040Z,12.64
2023-05-25T00:21:08.132Z,12.65
2023-05-25T00:23:52.759Z,12.68
2023-05-25T00:26:37.804Z,12.63
2023-05-25T00:29:22.547Z,12.63
2023-05-25T00:32:07.614Z,12.57
2023-05-25T00:34:53.035Z,12.56
2023-05-25T00:37:37.849Z,12.53
2023-05-25T00:40:22.905Z,12.49
2023-05-25T00:43:07.768Z,12.46
2023-05-25T00:45:52.430Z,12.43
2023-05-25T00:48:37.301Z,12.42
2023-05-25T00:51:22.288Z,12.45
2023-05-25T00:54:07.154Z,12.49
2023-05-25T00:56:52.199Z,12.45
2023-05-25T00:59:36.732Z,12.47
2023-05-25T01:02:21.967Z,12.52
2023-05-25T01:05:07.058Z,12.51
2023-05-25T01:07:52.270Z,12.46
2023-05-25T01:10:37.013Z,12.49
2023-05-25T01:13:21.696Z,12.45
2023-05-25T01:16:06.802Z,12.43
2023-05-25T01:18:51.920Z,12.34
2023-05-25T01:21:38.735Z,12.28
2023-05-25T01:24:23.893Z,12.28
2023-05-25T01:27:09.072Z,12.27
2023-05-25T01:29:53.914Z,12.30
2023-05-25T01:32:39.014Z,12.28
2023-05-25T01:35:24.263Z,12.31
2023-05-25T01:38:09.337Z,12.24
2023-05-25T01:40:54.182Z,12.23
2023-05-25T01:43:39.076Z,12.17
2023-05-25T01:46:23.986Z,12.20
2023-05-25T01:49:08.771Z,12.22
2023-05-25T01:51:53.522Z,12.20
2023-05-25T01:54:38.508Z,12.19
2023-05-25T01:57:23.465Z,12.17
2023-05-25T02:00:08.479Z,12.19
2023-05-25T02:02:53.072Z,12.20
2023-05-25T02:05:38.035Z,12.26
2023-05-25T02:08:22.832Z,12.14
2023-05-25T02:11:07.973Z,12.14
2023-05-25T02:13:52.801Z,12.15
2023-05-25T02:16:37.827Z,12.12
2023-05-25T02:19:22.780Z,12.09
2023-05-25T02:22:07.523Z,12.05
2023-05-25T02:24:52.745Z,12.06
2023-05-25T02:27:37.454Z,12.00
2023-05-25T02:30:22.543Z,11.98
2023-05-25T02:33:07.100Z,12.00
2023-05-25T02:35:51.932Z,11.95
2023-05-25T02:38:36.828Z,11.74
2023-05-25T02:41:21.731Z,11.71
2023-05-25T02:44:06.461Z,11.73
2023-05-25T02:46:51.199Z,11.78
2023-05-25T02:49:35.945Z,11.84
2023-05-25T02:52:20.796Z,11.86
2023-05-25T02:55:05.734Z,11.95
2023-05-25T02:57:50.591Z,11.96
2023-05-25T03:00:35.492Z,11.97
2023-05-25T03:03:20.271Z,12.00
2023-05-25T03:06:05.285Z,11.96
2023-05-25T03:08:50.060Z,11.75
2023-05-25T03:11:35.169Z,11.64
2023-05-25T03:14:19.970Z,11.64
2023-05-25T03:17:05.032Z,11.66
2023-05-25T03:19:49.962Z,11.68
2023-05-25T03:22:34.887Z,11.71
2023-05-25T03:25:20.007Z,11.70
2023-05-25T03:28:04.932Z,11.71
2023-05-25T03:30:49.716Z,11.68
2023-05-25T03:33:34.795Z,11.64
2023-05-25T03:36:19.807Z,11.63
2023-05-25T03:39:04.795Z,11.67
2023-05-25T03:41:49.895Z,11.69
2023-05-25T03:44:34.554Z,11.60
2023-05-25T03:47:19.476Z,11.58
2023-05-25T03:50:04.308Z,11.51
2023-05-25T03:52:49.239Z,11.51
2023-05-25T03:55:34.345Z,11.46
2023-05-25T03:58:19.320Z,11.47
2023-05-25T04:01:05.220Z,11.54
2023-05-25T04:03:50.366Z,11.57
2023-05-25T04:06:35.085Z,11.63
2023-05-25T04:09:20.310Z,11.61
2023-05-25T04:12:05.232Z,11.67
2023-05-25T04:14:50.223Z,11.69
2023-05-25T04:17:36.832Z,11.72
2023-05-25T04:20:23.274Z,11.78
2023-05-25T04:23:08.349Z,11.73
2023-05-25T04:25:53.278Z,11.68
2023-05-25T04:28:38.486Z,11.57
2023-05-25T04:31:23.602Z,11.52
2023-05-25T04:34:08.656Z,11.61
2023-05-25T04:36:54.056Z,11.69
2023-05-25T04:39:38.811Z,11.74
2023-05-25T04:42:27.889Z,11.73
2023-05-25T04:45:13.036Z,11.67
2023-05-25T04:47:57.687Z,11.67
2023-05-25T04:50:43.438Z,11.70
2023-05-25T04:53:28.493Z,11.59
2023-05-25T04:56:13.591Z,11.57
2023-05-25T04:58:58.255Z,11.62
2023-05-25T05:01:43.026Z,11.62
2023-05-25T05:04:28.026Z,11.56
2023-05-25T05:07:13.027Z,11.60
2023-05-25T05:09:58.062Z,11.57
2023-05-25T05:12:43.047Z,11.55
2023-05-25T05:15:29.159Z,11.61
2023-05-25T05:18:14.105Z,11.64
2023-05-25T05:20:59.046Z,11.66
2023-05-25T05:23:43.952Z,11.72
2023-05-25T05:26:28.758Z,11.72
2023-05-25T05:29:13.665Z,11.69
2023-05-25T05:31:58.549Z,11.71
2023-05-25T05:34:43.606Z,11.70
2023-05-25T05:37:28.282Z,11.70
2023-05-25T05:40:13.148Z,11.73
2023-05-25T05:42:58.028Z,11.81
2023-05-25T05:45:43.104Z,11.79
2023-05-25T05:48:28.369Z,11.77
2023-05-25T05:51:13.149Z,11.86
2023-05-25T05:53:58.139Z,11.53
2023-05-25T05:56:43.140Z,11.39
2023-05-25T05:59:27.899Z,11.53
2023-05-25T06:02:12.657Z,11.59
2023-05-25T06:04:57.578Z,11.61
2023-05-25T06:07:42.448Z,11.65
2023-05-25T06:10:27.825Z,11.81
2023-05-25T06:13:12.924Z,11.81
2023-05-25T06:15:57.978Z,11.98
2023-05-25T06:18:42.920Z,11.93
2023-05-25T06:21:27.753Z,12.19
2023-05-25T06:24:12.803Z,12.27
2023-05-25T06:26:57.591Z,12.33
2023-05-25T06:29:42.643Z,12.35
2023-05-25T06:32:27.595Z,12.39
2023-05-25T06:35:13.256Z,12.44
2023-05-25T06:37:58.798Z,12.55
2023-05-25T06:40:43.791Z,12.39
2023-05-25T06:43:28.848Z,12.30
2023-05-25T06:46:13.749Z,12.15
2023-05-25T06:48:58.768Z,12.19
2023-05-25T06:51:43.701Z,12.33
2023-05-25T06:54:28.665Z,12.40
2023-05-25T06:57:13.696Z,12.43
2023-05-25T06:59:58.573Z,12.31
2023-05-25T07:02:43.652Z,12.35
2023-05-25T07:05:28.499Z,12.34
2023-05-25T07:08:13.499Z,12.43
2023-05-25T07:10:58.495Z,12.38
2023-05-25T07:13:43.420Z,11.98
2023-05-25T07:16:28.316Z,12.03
2023-05-25T07:19:13.244Z,12.21
2023-05-25T07:21:58.037Z,12.15
2023-05-25T07:24:42.825Z,12.25
2023-05-25T07:27:27.973Z,12.25
2023-05-25T07:30:12.776Z,12.43
2023-05-25T07:32:57.644Z,12.53
2023-05-25T07:35:42.786Z,12.40
2023-05-25T07:38:27.936Z,12.76
2023-05-25T07:41:12.790Z,12.72
2023-05-25T07:43:57.747Z,12.73
2023-05-25T07:46:42.977Z,13.10
2023-05-25T07:49:27.707Z,13.20
2023-05-25T07:52:12.644Z,13.57
2023-05-25T07:54:57.525Z,13.59
2023-05-25T07:57:42.400Z,13.19
2023-05-25T08:00:27.241Z,13.33
2023-05-25T08:03:12.307Z,13.33
2023-05-25T08:05:57.143Z,13.19
2023-05-25T08:08:42.241Z,13.61
2023-05-25T08:11:27.200Z,13.61
2023-05-25T08:14:12.064Z,13.89
2023-05-25T08:16:57.246Z,13.96
2023-05-25T08:19:41.957Z,14.10
2023-05-25T08:22:26.889Z,13.93
2023-05-25T08:25:11.835Z,14.04
2023-05-25T08:27:56.886Z,14.11
2023-05-25T08:30:42.053Z,14.19
2023-05-25T08:33:26.973Z,14.09
2023-05-25T08:36:11.921Z,14.42
2023-05-25T08:38:56.962Z,14.33
2023-05-25T08:41:41.840Z,14.09
2023-05-25T08:44:26.667Z,14.50
2023-05-25T08:47:11.795Z,14.09
2023-05-25T08:49:56.657Z,14.05
2023-05-25T08:52:41.476Z,14.39
2023-05-25T08:55:26.346Z,14.68
2023-05-25T08:58:11.169Z,14.96
2023-05-25T09:00:56.149Z,15.11
2023-05-25T09:03:41.107Z,14.95
2023-05-25T09:06:25.973Z,15.13
2023-05-25T09:09:10.909Z,15.19
2023-05-25T09:11:55.906Z,15.40
2023-05-25T09:14:40.828Z,15.19
2023-05-25T09:17:25.719Z,15.16
2023-05-25T09:20:10.673Z,15.49
2023-05-25T09:22:55.698Z,15.57
2023-05-25T09:25:40.541Z,15.69
2023-05-25T09:28:27.349Z,15.81
2023-05-25T09:31:12.710Z,16.26
2023-05-25T09:33:57.742Z,16.42
2023-05-25T09:36:42.706Z,16.46
2023-05-25T09:39:27.786Z,16.31
2023-05-25T09:42:12.689Z,16.20
2023-05-25T09:44:57.843Z,15.89
2023-05-25T09:47:42.978Z,16.17
2023-05-25T09:50:27.852Z,16.00
2023-05-25T09:53:12.732Z,16.04
2023-05-25T09:55:57.747Z,16.21
2023-05-25T09:58:42.525Z,16.10
2023-05-25T10:01:27.598Z,16.30
2023-05-25T10:04:12.468Z,16.30
2023-05-25T10:06:57.643Z,16.45
2023-05-25T10:09:42.663Z,16.20
2023-05-25T10:12:27.594Z,16.31
2023-05-25T10:15:12.426Z,16.28
2023-05-25T10:17:57.373Z,16.51
2023-05-25T10:20:42.334Z,16.36
2023-05-25T10:23:27.582Z,16.36
2023-05-25T10:26:13.025Z,16.74
2023-05-25T10:28:57.975Z,16.51
2023-05-25T10:31:42.987Z,16.55
2023-05-25T10:34:28.080Z,16.76
2023-05-25T10:37:12.928Z,16.86
2023-05-25T10:39:58.138Z,16.91
2023-05-25T10:42:43.189Z,17.07
2023-05-25T10:45:28.188Z,17.12
2023-05-25T10:48:13.256Z,17.19
2023-05-25T10:50:58.230Z,17.06
2023-05-25T10:53:43.210Z,17.44
2023-05-25T10:56:28.065Z,17.71
2023-05-25T10:59:13.001Z,17.60
2023-05-25T11:01:58.049Z,17.82
2023-05-25T11:04:42.865Z,17.77
2023-05-25T11:07:27.767Z,17.95
2023-05-25T11:10:12.644Z,17.96
2023-05-25T11:12:57.725Z,18.02
2023-05-25T11:15:42.647Z,18.01
2023-05-25T11:18:28.375Z,18.31
2023-05-25T11:21:13.255Z,18.30
2023-05-25T11:23:58.330Z,18.61
2023-05-25T11:26:43.100Z,18.44
2023-05-25T11:29:27.980Z,18.40
2023-05-25T11:32:12.944Z,18.66
2023-05-25T11:34:57.922Z,18.56
2023-05-25T11:37:42.955Z,18.50
2023-05-25T11:40:27.727Z,18.82
2023-05-25T11:43:12.865Z,19.09
2023-05-25T11:45:57.792Z,19.06
2023-05-25T11:48:42.620Z,18.91
2023-05-25T11:51:27.672Z,19.22
2023-05-25T11:54:12.726Z,19.20
2023-05-25T11:56:57.670Z,18.92
2023-05-25T11:59:42.382Z,18.95
2023-05-25T12:02:27.703Z,19.06
2023-05-25T12:05:12.759Z,18.99
2023-05-25T12:07:57.604Z,19.08
2023-05-25T12:10:42.769Z,18.81
2023-05-25T12:13:27.883Z,18.71
2023-05-25T12:16:12.750Z,19.14
2023-05-25T12:18:57.658Z,19.16
2023-05-25T12:21:42.758Z,19.03
2023-05-25T12:24:27.662Z,19.17
2023-05-25T12:27:13.320Z,19.26
2023-05-25T12:29:58.617Z,19.02
2023-05-25T12:32:43.704Z,19.04
2023-05-25T12:35:28.514Z,19.17
2023-05-25T12:38:13.589Z,19.47
2023-05-25T12:40:58.673Z,19.29
2023-05-25T12:43:43.592Z,19.56
2023-05-25T12:46:30.440Z,19.66
2023-05-25T12:49:15.409Z,19.66
2023-05-25T12:52:00.478Z,19.91
2023-05-25T12:54:45.523Z,20.22
2023-05-25T12:57:30.575Z,19.61
2023-05-25T13:00:15.575Z,19.79
2023-05-25T13:03:00.660Z,19.96
2023-05-25T13:05:45.706Z,20.26
2023-05-25T13:08:30.752Z,20.12
2023-05-25T13:11:15.938Z,20.27
2023-05-25T13:14:00.868Z,19.67
2023-05-25T13:16:45.974Z,19.67
2023-05-25T13:19:31.204Z,19.79
2023-05-25T13:22:16.015Z,19.81
2023-05-25T13:25:00.897Z,20.20
2023-05-25T13:27:45.807Z,19.73
2023-05-25T13:30:30.948Z,19.49
2023-05-25T13:33:15.792Z,19.65
2023-05-25T13:36:00.732Z,19.63
2023-05-25T13:38:45.633Z,19.68
2023-05-25T13:41:31.617Z,19.51
2023-05-25T13:44:17.684Z,19.65
2023-05-25T13:47:02.810Z,20.07
2023-05-25T13:49:47.745Z,19.68
2023-05-25T13:52:32.739Z,19.73
2023-05-25T13:55:17.789Z,20.08
2023-05-25T13:58:02.680Z,19.69
2023-05-25T14:00:47.549Z,19.96
2023-05-25T14:03:32.831Z,20.42
2023-05-25T14:06:18.023Z,20.46
2023-05-25T14:09:02.810Z,20.46
2023-05-25T14:11:47.733Z,20.39
2023-05-25T14:14:33.157Z,20.70
2023-05-25T14:17:18.122Z,20.71
2023-05-25T14:20:03.138Z,20.39
2023-05-25T14:22:48.061Z,20.34
2023-05-25T14:25:32.968Z,20.52
2023-05-25T14:28:17.957Z,21.02
2023-05-25T14:31:02.910Z,20.60
2023-05-25T14:33:48.229Z,20.84
2023-05-25T14:36:33.125Z,20.99
2023-05-25T14:39:18.016Z,21.02
2023-05-25T14:42:02.992Z,21.23
2023-05-25T14:44:47.942Z,20.83
2023-05-25T14:47:33.036Z,21.20
2023-05-25T14:50:18.028Z,21.28
2023-05-25T14:53:03.080Z,21.37
2023-05-25T14:55:47.940Z,21.05
2023-05-25T14:58:32.941Z,20.95
2023-05-25T15:01:17.932Z,21.01
2023-05-25T15:04:02.972Z,20.84
2023-05-25T15:06:48.413Z,20.80
2023-05-25T15:09:33.247Z,20.93
2023-05-25T15:12:18.246Z,21.10
2023-05-25T15:15:03.131Z,21.16
2023-05-25T15:17:48.132Z,21.04
2023-05-25T15:20:32.971Z,21.11
2023-05-25T15:23:17.716Z,21.24
2023-05-25T15:26:02.571Z,21.26
2023-05-25T15:28:48.598Z,21.22
2023-05-25T15:31:33.576Z,21.02
2023-05-25T15:34:18.404Z,21.29
2023-05-25T15:37:03.454Z,21.39
2023-05-25T15:39:48.467Z,21.41
2023-05-25T15:42:33.450Z,21.02
2023-05-25T15:45:18.407Z,20.88
2023-05-25T15:48:03.421Z,21.00
2023-05-25T15:50:48.487Z,21.03
2023-05-25T15:53:33.452Z,21.20
2023-05-25T15:56:18.354Z,20.83
2023-05-25T15:59:03.226Z,20.90
2023-05-25T16:01:48.316Z,20.97
2023-05-25T16:04:33.123Z,20.91
2023-05-25T16:07:18.108Z,21.01
2023-05-25T16:10:03.126Z,20.87
2023-05-25T16:12:48.110Z,20.87
2023-05-25T16:15:33.109Z,20.89
2023-05-25T16:18:18.031Z,20.92
2023-05-25T16:21:03.092Z,20.89
2023-05-25T16:23:47.937Z,20.93
2023-05-25T16:26:32.838Z,20.94
2023-05-25T16:29:17.845Z,20.80
2023-05-25T16:32:02.850Z,20.60
2023-05-25T16:34:47.844Z,20.50
2023-05-25T16:37:32.803Z,20.37
2023-05-25T16:40:17.762Z,20.38
2023-05-25T16:43:02.603Z,19.90
2023-05-25T16:45:47.723Z,19.88
2023-05-25T16:48:32.845Z,19.85
2023-05-25T16:51:17.719Z,19.85
2023-05-25T16:54:02.615Z,19.88
2023-05-25T16:56:47.469Z,19.89
2023-05-25T16:59:33.902Z,19.53
2023-05-25T17:02:18.809Z,19.36
2023-05-25T17:05:04.072Z,19.28
2023-05-25T17:07:48.997Z,19.24
2023-05-25T17:10:33.870Z,19.26
2023-05-25T17:13:18.849Z,19.34
2023-05-25T17:16:03.869Z,19.39
2023-05-25T17:18:48.822Z,19.36
2023-05-25T17:21:33.612Z,19.32
2023-05-25T17:24:19.065Z,19.19
2023-05-25T17:27:04.511Z,19.09
2023-05-25T17:29:49.615Z,19.13
2023-05-25T17:32:34.600Z,19.21
2023-05-25T17:35:19.378Z,19.27
2023-05-25T17:38:04.210Z,19.33
2023-05-25T17:40:50.225Z,19.33
2023-05-25T17:43:35.233Z,19.36
2023-05-25T17:46:19.942Z,19.18
2023-05-25T17:49:05.081Z,19.18
2023-05-25T17:51:49.757Z,19.15
2023-05-25T17:54:34.611Z,19.22
2023-05-25T17:57:19.572Z,19.21
2023-05-25T18:00:04.458Z,19.18
2023-05-25T18:02:49.513Z,19.11
2023-05-25T18:05:34.317Z,18.99
2023-05-25T18:08:19.344Z,19.04
2023-05-25T18:11:04.173Z,18.96
2023-05-25T18:13:49.032Z,18.90
2023-05-25T18:16:33.833Z,18.80
2023-05-25T18:19:18.428Z,18.72
2023-05-25T18:22:03.294Z,18.66
2023-05-25T18:24:48.235Z,18.60
2023-05-25T18:27:33.992Z,18.54
2023-05-25T18:30:18.676Z,18.46
2023-05-25T18:33:03.702Z,18.31
2023-05-25T18:35:48.427Z,18.21
2023-05-25T18:38:33.473Z,18.20
2023-05-25T18:41:20.593Z,18.14
2023-05-25T18:44:06.363Z,18.03
2023-05-25T18:46:51.265Z,17.92
2023-05-25T18:49:36.105Z,17.90
2023-05-25T18:52:21.013Z,17.80
2023-05-25T18:55:05.872Z,17.71
2023-05-25T18:57:50.876Z,17.66
2023-05-25T19:00:35.518Z,17.63
2023-05-25T19:03:20.424Z,17.52
2023-05-25T19:06:05.304Z,17.40
2023-05-25T19:08:50.270Z,17.35
2023-05-25T19:11:35.233Z,17.26
2023-05-25T19:14:20.237Z,17.22
2023-05-25T19:17:05.357Z,17.18
2023-05-25T19:19:50.385Z,17.13
2023-05-25T19:22:35.226Z,17.13
2023-05-25T19:25:20.146Z,17.06
2023-05-25T19:28:05.161Z,17.01
2023-05-25T19:30:49.897Z,16.90
2023-05-25T19:33:34.819Z,16.88
2023-05-25T19:36:20.341Z,16.85
2023-05-25T19:39:05.091Z,16.72
2023-05-25T19:41:50.118Z,16.67
2023-05-25T19:44:34.982Z,16.65
2023-05-25T19:47:19.801Z,16.54
2023-05-25T19:50:04.670Z,16.47
2023-05-25T19:52:49.529Z,16.37
2023-05-25T19:55:34.399Z,16.31
2023-05-25T19:58:19.098Z,16.30
2023-05-25T20:01:04.002Z,16.30
2023-05-25T20:03:49.476Z,16.22
2023-05-25T20:06:34.354Z,16.21
2023-05-25T20:09:19.325Z,16.14
2023-05-25T20:12:04.350Z,16.07
2023-05-25T20:14:49.086Z,15.99
2023-05-25T20:17:34.088Z,15.89
2023-05-25T20:20:19.049Z,15.92
2023-05-25T20:23:03.875Z,15.85
2023-05-25T20:25:49.031Z,15.82
2023-05-25T20:28:33.767Z,15.75
2023-05-25T20:31:18.768Z,15.68
2023-05-25T20:34:04.028Z,15.61
2023-05-25T20:36:49.295Z,15.59
2023-05-25T20:39:34.214Z,15.50
2023-05-25T20:42:18.753Z,15.48
2023-05-25T20:45:03.760Z,15.42
2023-05-25T20:47:48.706Z,15.38
2023-05-25T20:50:33.727Z,15.29
2023-05-25T20:53:18.566Z,15.26
2023-05-25T20:56:03.853Z,15.26
2023-05-25T20:58:48.752Z,15.22
2023-05-25T21:01:33.782Z,15.21
2023-05-25T21:04:18.731Z,15.15
2023-05-25T21:07:03.813Z,15.11
2023-05-25T21:09:48.758Z,15.09
2023-05-25T21:12:33.756Z,15.07
2023-05-25T21:15:18.588Z,15.07
2023-05-25T21:18:03.683Z,15.01
2023-05-25T21:20:48.409Z,14.97
2023-05-25T21:23:33.299Z,14.92
2023-05-25T21:26:18.150Z,14.93
2023-05-25T21:29:02.839Z,14.87
2023-05-25T21:31:47.814Z,14.79
2023-05-25T21:34:32.850Z,14.84
2023-05-25T21:37:17.575Z,14.74
2023-05-25T21:40:02.604Z,14.62
2023-05-25T21:42:49.261Z,14.50
2023-05-25T21:45:35.564Z,14.45
2023-05-25T21:48:20.429Z,14.42
2023-05-25T21:51:05.316Z,14.45
2023-05-25T21:53:50.241Z,14.41
2023-05-25T21:56:35.215Z,14.38
2023-05-25T21:59:20.197Z,14.34
2023-05-25T22:02:04.990Z,14.33
2023-05-25T22:04:49.939Z,14.36
2023-05-25T22:07:34.892Z,14.31
2023-05-25T22:10:19.619Z,14.26
2023-05-25T22:13:04.626Z,14.32
2023-05-25T22:15:49.519Z,14.25
2023-05-25T22:18:36.452Z,14.20
2023-05-25T22:21:22.549Z,14.17
2023-05-25T22:24:07.457Z,14.19
2023-05-25T22:26:52.499Z,14.14
2023-05-25T22:29:37.476Z,14.15
2023-05-25T22:32:22.548Z,14.09
2023-05-25T22:35:07.329Z,14.06
2023-05-25T22:37:52.311Z,14.04
2023-05-25T22:40:37.175Z,14.07
2023-05-25T22:43:22.195Z,14.04
2023-05-25T22:46:07.301Z,14.06
2023-05-25T22:48:52.232Z,14.11
2023-05-25T22:51:37.245Z,14.07
2023-05-25T22:54:22.203Z,14.06
2023-05-25T22:57:07.338Z,14.02
2023-05-25T22:59:52.187Z,14.08
2023-05-25T23:02:37.300Z,14.04
2023-05-25T23:05:22.202Z,13.97
2023-05-25T23:08:07.159Z,14.01
2023-05-25T23:10:52.268Z,13.95
2023-05-25T23:13:37.388Z,13.95
2023-05-25T23:16:22.388Z,13.89
2023-05-25T23:19:07.350Z,13.83
2023-05-25T23:21:52.428Z,13.74
2023-05-25T23:24:37.276Z,13.72
2023-05-25T23:27:22.236Z,13.67
2023-05-25T23:30:07.323Z,13.63
2023-05-25T23:32:53.048Z,13.68
2023-05-25T23:35:37.808Z,13.69
2023-05-25T23:38:22.831Z,13.72
2023-05-25T23:41:07.555Z,13.77
2023-05-25T23:43:52.431Z,13.66
2023-05-25T23:46:37.590Z,13.66
2023-05-25T23:49:22.413Z,13.67
2023-05-25T23:52:07.330Z,13.62
2023-05-25T23:54:52.349Z,13.54
2023-05-25T23:57:37.250Z,13.57
